createdAt,value
2022-08-20T00:01:20.906Z,70.79
2022-08-20T00:03:53.592Z,70.37
2022-08-20T00:06:25.989Z,70.22
2022-08-20T00:08:58.409Z,70.70
2022-08-20T00:11:33.203Z,70.97
2022-08-20T00:14:06.930Z,71.48
2022-08-20T00:16:39.458Z,71.84
2022-08-20T00:19:11.895Z,71.81
2022-08-20T00:21:44.315Z,71.91
2022-08-20T00:24:19.379Z,72.31
2022-08-20T00:26:52.992Z,72.40
2022-08-20T00:29:25.786Z,72.84
2022-08-20T00:31:58.807Z,72.70
2022-08-20T00:34:31.218Z,72.87
2022-08-20T00:37:03.731Z,73.28
2022-08-20T00:39:36.291Z,73.54
2022-08-20T00:42:09.499Z,74.00
2022-08-20T00:44:45.632Z,74.40
2022-08-20T00:47:18.044Z,74.74
2022-08-20T00:49:50.587Z,74.69
2022-08-20T00:52:23.085Z,74.61
2022-08-20T00:55:00.183Z,74.95
2022-08-20T00:57:43.896Z,75.17
2022-08-20T01:00:32.870Z,75.45
2022-08-20T01:03:09.053Z,75.33
2022-08-20T01:05:44.059Z,75.41
2022-08-20T01:08:19.215Z,75.73
2022-08-20T01:11:02.934Z,75.00
2022-08-20T01:13:37.414Z,75.86
2022-08-20T01:16:17.773Z,75.55
2022-08-20T01:18:51.273Z,75.55
2022-08-20T01:21:25.339Z,75.94
2022-08-20T01:24:06.247Z,76.34
2022-08-20T01:26:44.629Z,76.44
2022-08-20T01:29:19.998Z,77.33
2022-08-20T01:31:52.571Z,77.13
2022-08-20T01:34:24.987Z,76.80
2022-08-20T01:36:58.208Z,77.13
2022-08-20T01:39:33.081Z,77.02
2022-08-20T01:42:12.577Z,77.01
2022-08-20T01:44:46.365Z,77.36
2022-08-20T01:47:21.622Z,77.76
2022-08-20T01:49:59.094Z,77.32
2022-08-20T01:52:37.503Z,77.78
2022-08-20T01:55:10.550Z,78.18
2022-08-20T01:57:44.223Z,78.01
2022-08-20T02:00:19.733Z,78.97
2022-08-20T02:02:53.947Z,78.99
2022-08-20T02:05:30.518Z,79.25
2022-08-20T02:08:04.145Z,79.24
2022-08-20T02:10:36.567Z,78.73
2022-08-20T02:13:09.695Z,78.61
2022-08-20T02:15:43.162Z,78.46
2022-08-20T02:18:16.193Z,78.19
2022-08-20T02:20:51.305Z,78.33
2022-08-20T02:23:23.779Z,78.17
2022-08-20T02:25:56.490Z,78.28
2022-08-20T02:28:29.594Z,77.57
2022-08-20T02:31:03.278Z,77.79
2022-08-20T02:33:35.993Z,78.19
2022-08-20T02:36:12.542Z,78.41
2022-08-20T02:38:46.436Z,78.62
2022-08-20T02:41:21.295Z,78.24
2022-08-20T02:43:54.359Z,78.63
2022-08-20T02:46:27.592Z,78.66
2022-08-20T02:49:00.087Z,78.83
2022-08-20T02:51:32.748Z,78.92
2022-08-20T02:54:05.311Z,79.25
2022-08-20T02:56:38.235Z,79.75
2022-08-20T02:59:12.534Z,79.62
2022-08-20T03:02:00.191Z,79.70
2022-08-20T03:04:33.339Z,79.79
2022-08-20T03:07:06.399Z,79.94
2022-08-20T03:09:39.213Z,79.31
2022-08-20T03:12:11.614Z,79.64
2022-08-20T03:14:44.667Z,80.27
2022-08-20T03:17:17.055Z,80.04
2022-08-20T03:19:49.506Z,79.17
2022-08-20T03:22:21.922Z,79.37
2022-08-20T03:24:54.886Z,79.45
2022-08-20T03:27:27.726Z,79.91
2022-08-20T03:30:13.736Z,79.85
2022-08-20T03:32:46.603Z,80.62
2022-08-20T03:35:21.466Z,80.08
2022-08-20T03:37:54.720Z,80.02
2022-08-20T03:40:30.048Z,80.59
2022-08-20T03:43:03.166Z,80.86
2022-08-20T03:45:38.712Z,81.10
2022-08-20T03:48:14.135Z,80.80
2022-08-20T03:50:48.536Z,80.99
2022-08-20T03:53:22.159Z,81.12
2022-08-20T03:55:56.451Z,81.53
2022-08-20T03:58:35.019Z,81.84
2022-08-20T04:01:44.178Z,82.86
2022-08-20T04:04:02.279Z,82.91
2022-08-20T04:06:35.184Z,82.72
2022-08-20T04:09:07.664Z,82.61
2022-08-20T04:11:42.429Z,82.77
2022-08-20T04:14:18.701Z,83.02
2022-08-20T04:16:52.690Z,83.09
2022-08-20T04:19:25.175Z,83.93
2022-08-20T04:21:57.689Z,83.55
2022-08-20T04:24:31.876Z,82.34
2022-08-20T04:27:05.095Z,82.04
2022-08-20T04:29:42.367Z,82.33
2022-08-20T04:32:15.451Z,83.60
2022-08-20T04:34:51.515Z,84.03
2022-08-20T04:37:24.496Z,83.94
2022-08-20T04:40:15.346Z,82.44
2022-08-20T04:42:47.859Z,83.62
2022-08-20T04:45:26.021Z,83.49
2022-08-20T04:48:05.045Z,82.44
2022-08-20T04:50:39.926Z,83.44
2022-08-20T04:53:16.139Z,84.07
2022-08-20T04:55:49.382Z,83.56
2022-08-20T04:58:26.672Z,84.36
2022-08-20T05:01:01.701Z,82.64
2022-08-20T05:03:34.941Z,82.61
2022-08-20T05:06:09.810Z,83.64
2022-08-20T05:08:42.409Z,83.46
2022-08-20T05:11:33.886Z,81.78
2022-08-20T05:14:08.957Z,81.95
2022-08-20T05:16:41.709Z,82.23
2022-08-20T05:19:14.858Z,80.68
2022-08-20T05:21:47.254Z,80.57
2022-08-20T05:24:20.787Z,81.62
2022-08-20T05:26:55.144Z,82.95
2022-08-20T05:29:28.077Z,83.66
2022-08-20T05:32:01.179Z,83.13
2022-08-20T05:34:34.277Z,82.40
2022-08-20T05:37:07.739Z,80.43
2022-08-20T05:39:40.268Z,79.89
2022-08-20T05:42:12.704Z,79.74
2022-08-20T05:44:45.942Z,80.52
2022-08-20T05:47:18.383Z,80.05
2022-08-20T05:49:51.935Z,80.06
2022-08-20T05:52:24.384Z,80.53
2022-08-20T05:54:56.990Z,81.01
2022-08-20T05:57:29.601Z,77.90
2022-08-20T06:00:05.607Z,78.15
2022-08-20T06:03:02.203Z,76.58
2022-08-20T06:05:35.339Z,76.48
2022-08-20T06:08:09.646Z,74.96
2022-08-20T06:10:43.399Z,74.17
2022-08-20T06:13:15.828Z,73.91
2022-08-20T06:15:48.700Z,73.85
2022-08-20T06:18:27.746Z,74.29
2022-08-20T06:21:01.854Z,73.65
2022-08-20T06:23:56.896Z,71.20
2022-08-20T06:26:29.644Z,69.50
2022-08-20T06:29:04.952Z,68.20
2022-08-20T06:31:39.247Z,66.78
2022-08-20T06:34:11.662Z,65.49
2022-08-20T06:36:46.062Z,65.34
2022-08-20T06:39:18.456Z,64.47
2022-08-20T06:41:51.315Z,64.26
2022-08-20T06:44:27.602Z,64.24
2022-08-20T06:47:00.787Z,63.41
2022-08-20T06:49:35.403Z,62.82
2022-08-20T06:52:08.747Z,61.78
2022-08-20T06:54:44.075Z,61.17
2022-08-20T06:57:16.875Z,59.87
2022-08-20T06:59:54.157Z,59.55
2022-08-20T07:02:30.068Z,59.78
2022-08-20T07:05:04.575Z,59.43
2022-08-20T07:07:38.151Z,59.70
2022-08-20T07:10:12.587Z,58.56
2022-08-20T07:12:46.138Z,57.79
2022-08-20T07:15:20.492Z,57.82
2022-08-20T07:18:00.876Z,57.03
2022-08-20T07:20:37.598Z,58.13
2022-08-20T07:23:11.323Z,56.73
2022-08-20T07:25:44.417Z,57.00
2022-08-20T07:28:20.218Z,57.05
2022-08-20T07:31:13.291Z,55.62
2022-08-20T07:33:46.778Z,54.78
2022-08-20T07:36:22.833Z,53.64
2022-08-20T07:38:56.890Z,53.68
2022-08-20T07:41:29.567Z,53.33
2022-08-20T07:44:02.314Z,53.11
2022-08-20T07:46:35.055Z,54.20
2022-08-20T07:49:08.902Z,52.78
2022-08-20T07:51:41.283Z,53.53
2022-08-20T07:54:14.351Z,52.39
2022-08-20T07:56:47.136Z,53.51
2022-08-20T07:59:24.199Z,52.34
2022-08-20T08:01:57.030Z,51.33
2022-08-20T08:04:29.518Z,50.39
2022-08-20T08:07:01.954Z,50.22
2022-08-20T08:09:35.543Z,49.41
2022-08-20T08:12:08.233Z,49.69
2022-08-20T08:14:42.842Z,49.56
2022-08-20T08:17:17.219Z,49.15
2022-08-20T08:19:50.699Z,47.24
2022-08-20T08:22:23.309Z,46.59
2022-08-20T08:25:01.426Z,48.29
2022-08-20T08:27:33.982Z,47.54
2022-08-20T08:30:08.197Z,45.63
2022-08-20T08:33:01.463Z,45.29
2022-08-20T08:35:34.046Z,45.20
2022-08-20T08:38:06.476Z,45.48
2022-08-20T08:40:40.480Z,45.49
2022-08-20T08:43:14.484Z,44.29
2022-08-20T08:46:00.790Z,43.67
2022-08-20T08:48:36.931Z,43.48
2022-08-20T08:51:12.123Z,40.92
2022-08-20T08:53:50.394Z,42.02
2022-08-20T08:56:28.364Z,40.24
2022-08-20T08:59:03.935Z,42.37
2022-08-20T09:01:54.615Z,41.48
2022-08-20T09:04:34.454Z,41.98
2022-08-20T09:07:13.772Z,38.75
2022-08-20T09:09:46.747Z,37.88
2022-08-20T09:12:22.215Z,38.82
2022-08-20T09:14:54.937Z,36.62
2022-08-20T09:17:27.484Z,37.75
2022-08-20T09:19:59.946Z,38.60
2022-08-20T09:22:33.187Z,40.01
2022-08-20T09:25:06.875Z,40.91
2022-08-20T09:27:41.564Z,38.55
2022-08-20T09:30:16.858Z,37.74
2022-08-20T09:32:50.978Z,38.29
2022-08-20T09:35:23.611Z,37.85
2022-08-20T09:37:56.049Z,37.03
2022-08-20T09:40:28.438Z,36.63
2022-08-20T09:43:02.783Z,36.45
2022-08-20T09:45:35.359Z,37.00
2022-08-20T09:48:10.189Z,37.11
2022-08-20T09:50:47.311Z,36.71
2022-08-20T09:53:21.588Z,35.20
2022-08-20T09:55:55.538Z,35.04
2022-08-20T09:58:34.583Z,34.58
2022-08-20T10:01:13.662Z,34.28
2022-08-20T10:03:48.323Z,34.23
2022-08-20T10:06:20.926Z,33.58
2022-08-20T10:08:53.354Z,34.30
2022-08-20T10:11:25.880Z,34.33
2022-08-20T10:14:02.916Z,33.16
2022-08-20T10:16:35.499Z,32.47
2022-08-20T10:19:07.966Z,32.62
2022-08-20T10:21:40.385Z,32.94
2022-08-20T10:24:12.863Z,32.49
2022-08-20T10:26:45.418Z,32.56
2022-08-20T10:29:18.515Z,31.44
2022-08-20T10:31:51.246Z,32.30
2022-08-20T10:34:25.048Z,33.36
2022-08-20T10:36:58.315Z,32.97
2022-08-20T10:39:31.564Z,32.45
2022-08-20T10:42:04.174Z,32.66
2022-08-20T10:44:37.331Z,31.47
2022-08-20T10:47:21.431Z,31.51
2022-08-20T10:49:56.146Z,32.23
2022-08-20T10:52:28.969Z,31.44
2022-08-20T10:55:03.562Z,31.45
2022-08-20T10:57:39.275Z,30.60
2022-08-20T11:00:15.049Z,30.53
2022-08-20T11:02:47.485Z,30.29
2022-08-20T11:05:20.006Z,31.28
2022-08-20T11:07:55.978Z,30.87
2022-08-20T11:10:32.619Z,30.40
2022-08-20T11:13:06.927Z,30.38
2022-08-20T11:15:42.483Z,29.94
2022-08-20T11:18:15.111Z,29.55
2022-08-20T11:20:47.615Z,29.78
2022-08-20T11:23:20.039Z,30.10
2022-08-20T11:25:52.633Z,30.23
2022-08-20T11:28:31.259Z,29.78
2022-08-20T11:31:05.303Z,29.41
2022-08-20T11:33:37.718Z,30.07
2022-08-20T11:36:10.151Z,29.52
2022-08-20T11:38:42.556Z,29.64
2022-08-20T11:41:14.945Z,29.49
2022-08-20T11:44:04.766Z,29.29
2022-08-20T11:46:40.342Z,29.97
2022-08-20T11:49:12.749Z,29.45
2022-08-20T11:51:49.117Z,29.87
2022-08-20T11:54:22.673Z,29.61
2022-08-20T11:56:55.667Z,33.41
2022-08-20T11:59:28.198Z,34.91
2022-08-20T12:02:03.194Z,36.65
2022-08-20T12:04:36.054Z,38.54
2022-08-20T12:07:10.560Z,38.02
2022-08-20T12:09:51.225Z,39.43
2022-08-20T12:12:24.217Z,39.97
2022-08-20T12:14:56.631Z,44.36
2022-08-20T12:17:32.030Z,46.63
2022-08-20T12:20:08.313Z,48.56
2022-08-20T12:22:41.232Z,47.89
2022-08-20T12:25:13.709Z,49.08
2022-08-20T12:27:46.739Z,48.06
2022-08-20T12:30:21.926Z,48.69
2022-08-20T12:32:55.229Z,51.59
2022-08-20T12:35:27.639Z,53.45
2022-08-20T12:38:04.635Z,55.89
2022-08-20T12:40:37.354Z,54.07
2022-08-20T12:43:19.656Z,48.44
2022-08-20T12:45:54.070Z,46.79
2022-08-20T12:48:27.275Z,44.20
2022-08-20T12:50:59.636Z,46.70
2022-08-20T12:53:32.097Z,50.78
2022-08-20T12:56:05.466Z,56.49
2022-08-20T12:58:38.019Z,56.70
2022-08-20T13:01:10.526Z,53.60
2022-08-20T13:03:45.248Z,47.93
2022-08-20T13:06:17.750Z,45.62
2022-08-20T13:08:50.224Z,43.70
2022-08-20T13:11:22.813Z,44.08
2022-08-20T13:13:55.305Z,44.62
2022-08-20T13:16:27.883Z,43.71
2022-08-20T13:19:01.045Z,44.61
2022-08-20T13:21:33.477Z,46.64
2022-08-20T13:24:06.023Z,50.80
2022-08-20T13:26:38.416Z,53.73
2022-08-20T13:29:11.271Z,56.95
2022-08-20T13:31:43.858Z,54.95
2022-08-20T13:34:17.004Z,57.15
2022-08-20T13:36:49.695Z,60.13
2022-08-20T13:39:23.302Z,62.62
2022-08-20T13:41:56.064Z,59.86
2022-08-20T13:44:33.260Z,62.40
2022-08-20T13:47:17.074Z,63.98
2022-08-20T13:49:55.533Z,61.71
2022-08-20T13:52:28.521Z,62.30
2022-08-20T13:55:01.016Z,65.31
2022-08-20T13:57:35.759Z,68.04
2022-08-20T14:00:14.010Z,66.39
2022-08-20T14:02:46.505Z,68.86
2022-08-20T14:05:20.351Z,71.01
2022-08-20T14:07:52.923Z,72.37
2022-08-20T14:10:30.585Z,75.45
2022-08-20T14:13:13.322Z,77.53
2022-08-20T14:15:47.821Z,79.80
2022-08-20T14:18:20.326Z,80.92
2022-08-20T14:20:53.482Z,81.16
2022-08-20T14:23:25.877Z,83.70
2022-08-20T14:26:00.298Z,82.97
2022-08-20T14:28:32.689Z,84.20
2022-08-20T14:31:05.299Z,85.97
2022-08-20T14:33:41.268Z,89.91
2022-08-20T14:36:17.143Z,88.74
2022-08-20T14:38:49.567Z,89.41
2022-08-20T14:41:22.022Z,90.52
2022-08-20T14:43:54.378Z,87.61
2022-08-20T14:46:26.835Z,84.40
2022-08-20T14:49:01.052Z,83.98
2022-08-20T14:51:34.164Z,85.61
2022-08-20T14:54:06.554Z,88.13
2022-08-20T14:56:38.982Z,90.87
2022-08-20T14:59:11.383Z,88.32
2022-08-20T15:01:44.052Z,88.73
2022-08-20T15:04:18.525Z,91.58
2022-08-20T15:06:51.747Z,90.15
2022-08-20T15:09:29.755Z,91.64
2022-08-20T15:12:02.324Z,93.89
2022-08-20T15:14:34.823Z,90.29
2022-08-20T15:17:17.251Z,91.88
2022-08-20T15:19:49.688Z,92.84
2022-08-20T15:22:23.815Z,92.35
2022-08-20T15:24:57.742Z,91.82
2022-08-20T15:27:30.411Z,91.51
2022-08-20T15:30:04.739Z,91.26
2022-08-20T15:32:37.381Z,93.42
2022-08-20T15:35:12.435Z,92.77
2022-08-20T15:37:50.647Z,94.43
2022-08-20T15:40:28.406Z,94.06
2022-08-20T15:43:02.878Z,95.68
2022-08-20T15:45:35.895Z,93.87
2022-08-20T15:48:12.036Z,95.34
2022-08-20T15:50:57.132Z,98.14
2022-08-20T15:53:39.228Z,97.59
2022-08-20T15:56:24.992Z,94.97
2022-08-20T15:59:13.659Z,93.11
2022-08-20T16:01:53.474Z,94.75
2022-08-20T16:04:59.334Z,93.33
2022-08-20T16:07:39.589Z,91.63
2022-08-20T16:10:17.801Z,92.75
2022-08-20T16:12:54.123Z,94.09
2022-08-20T16:15:31.707Z,93.45
2022-08-20T16:18:08.699Z,95.78
2022-08-20T16:20:44.042Z,92.41
2022-08-20T16:23:26.695Z,94.25
2022-08-20T16:26:13.210Z,94.04
2022-08-20T16:29:06.283Z,95.22
2022-08-20T16:31:49.416Z,96.45
2022-08-20T16:34:33.929Z,95.98
2022-08-20T16:37:20.960Z,95.89
2022-08-20T16:40:02.334Z,94.32
2022-08-20T16:42:38.660Z,95.20
2022-08-20T16:45:16.741Z,95.94
2022-08-20T16:47:50.537Z,95.89
2022-08-20T16:50:25.863Z,94.94
2022-08-20T16:52:58.645Z,95.77
2022-08-20T16:55:31.607Z,96.97
2022-08-20T16:58:04.730Z,97.79
2022-08-20T17:00:45.389Z,97.52
2022-08-20T17:03:31.553Z,97.28
2022-08-20T17:06:20.627Z,96.97
2022-08-20T17:08:53.778Z,97.44
2022-08-20T17:11:32.262Z,96.76
2022-08-20T17:14:09.563Z,96.01
2022-08-20T17:16:46.620Z,94.99
2022-08-20T17:19:27.196Z,97.15
2022-08-20T17:22:09.695Z,98.58
2022-08-20T17:24:42.187Z,100.00
2022-08-20T17:27:25.292Z,99.45
2022-08-20T17:30:11.679Z,97.49
2022-08-20T17:32:58.446Z,98.94
2022-08-20T17:35:35.600Z,100.00
2022-08-20T17:38:20.202Z,99.69
2022-08-20T17:40:59.396Z,98.84
2022-08-20T17:43:33.090Z,99.19
2022-08-20T17:46:11.222Z,98.63
2022-08-20T17:48:46.162Z,98.28
2022-08-20T17:51:21.384Z,97.51
2022-08-20T17:53:59.335Z,96.95
2022-08-20T17:56:36.605Z,97.79
2022-08-20T17:59:17.861Z,96.79
2022-08-20T18:02:05.967Z,96.34
2022-08-20T18:04:38.642Z,95.42
2022-08-20T18:07:18.884Z,95.21
2022-08-20T18:10:01.396Z,99.18
2022-08-20T18:12:38.858Z,99.73
2022-08-20T18:15:19.224Z,100.00
2022-08-20T18:18:15.400Z,100.00
2022-08-20T18:21:05.474Z,100.00
2022-08-20T18:23:43.072Z,100.00
2022-08-20T18:26:27.344Z,100.00
2022-08-20T18:29:07.844Z,100.00
2022-08-20T18:31:45.850Z,100.00
2022-08-20T18:34:21.374Z,100.00
2022-08-20T18:36:58.130Z,100.00
2022-08-20T18:39:34.727Z,100.00
2022-08-20T18:42:10.151Z,100.00
2022-08-20T18:44:45.479Z,100.00
2022-08-20T18:47:24.480Z,100.00
2022-08-20T18:50:16.359Z,100.00
2022-08-20T18:52:51.360Z,100.00
2022-08-20T18:55:31.956Z,100.00
2022-08-20T18:58:06.215Z,100.00
2022-08-20T19:00:42.044Z,100.00
2022-08-20T19:03:19.311Z,100.00
2022-08-20T19:06:05.158Z,100.00
2022-08-20T19:08:48.827Z,100.00
2022-08-20T19:11:55.796Z,100.00
2022-08-20T19:14:53.958Z,100.00
2022-08-20T19:17:48.373Z,100.00
2022-08-20T19:20:22.704Z,100.00
2022-08-20T19:23:01.237Z,100.00
2022-08-20T19:25:38.358Z,100.00
2022-08-20T19:28:19.908Z,100.00
2022-08-20T19:30:52.671Z,100.00
2022-08-20T19:33:27.086Z,100.00
2022-08-20T19:36:11.902Z,100.00
2022-08-20T19:38:47.332Z,100.00
2022-08-20T19:41:30.372Z,100.00
2022-08-20T19:44:04.213Z,100.00
2022-08-20T19:46:39.040Z,100.00
2022-08-20T19:49:19.981Z,100.00
2022-08-20T19:52:04.498Z,100.00
2022-08-20T19:54:47.022Z,100.00
2022-08-20T19:57:20.903Z,100.00
2022-08-20T19:59:58.012Z,100.00
2022-08-20T20:02:32.274Z,100.00
2022-08-20T20:05:05.683Z,100.00
2022-08-20T20:07:41.306Z,100.00
2022-08-20T20:10:29.446Z,100.00
2022-08-20T20:13:09.816Z,100.00
2022-08-20T20:15:43.447Z,100.00
2022-08-20T20:18:15.872Z,100.00
2022-08-20T20:20:57.743Z,100.00
2022-08-20T20:23:45.611Z,100.00
2022-08-20T20:26:20.352Z,100.00
2022-08-20T20:29:00.314Z,100.00
2022-08-20T20:31:47.404Z,100.00
2022-08-20T20:34:26.912Z,100.00
2022-08-20T20:37:03.897Z,100.00
2022-08-20T20:39:41.517Z,100.00
2022-08-20T20:42:26.779Z,100.00
2022-08-20T20:44:59.605Z,100.00
2022-08-20T20:47:33.713Z,100.00
2022-08-20T20:50:11.968Z,100.00
2022-08-20T20:52:49.488Z,100.00
2022-08-20T20:55:24.583Z,100.00
2022-08-20T20:57:59.069Z,100.00
2022-08-20T21:00:35.152Z,100.00
2022-08-20T21:03:07.660Z,100.00
2022-08-20T21:05:40.839Z,100.00
2022-08-20T21:08:14.180Z,100.00
2022-08-20T21:10:48.251Z,100.00
2022-08-20T21:13:21.372Z,100.00
2022-08-20T21:15:53.771Z,100.00
2022-08-20T21:18:26.569Z,100.00
2022-08-20T21:21:00.030Z,100.00
2022-08-20T21:23:40.013Z,100.00
2022-08-20T21:26:14.315Z,100.00
2022-08-20T21:28:47.493Z,100.00
2022-08-20T21:31:19.905Z,100.00
2022-08-20T21:33:52.344Z,100.00
2022-08-20T21:36:24.823Z,100.00
2022-08-20T21:38:57.867Z,100.00
2022-08-20T21:41:31.130Z,100.00
2022-08-20T21:44:11.210Z,100.00
2022-08-20T21:46:43.612Z,100.00
2022-08-20T21:49:16.122Z,100.00
2022-08-20T21:51:49.254Z,100.00
2022-08-20T21:54:22.604Z,100.00
2022-08-20T21:56:58.372Z,100.00
2022-08-20T21:59:32.093Z,100.00
2022-08-20T22:02:05.651Z,100.00
2022-08-20T22:04:38.142Z,100.00
2022-08-20T22:07:11.001Z,100.00
2022-08-20T22:09:43.544Z,100.00
2022-08-20T22:12:18.967Z,100.00
2022-08-20T22:14:52.232Z,100.00
2022-08-20T22:17:24.635Z,100.00
2022-08-20T22:19:57.083Z,100.00
2022-08-20T22:22:29.662Z,100.00
2022-08-20T22:25:02.336Z,100.00
2022-08-20T22:27:34.734Z,100.00
2022-08-20T22:30:11.132Z,100.00
2022-08-20T22:32:51.311Z,100.00
2022-08-20T22:35:25.158Z,100.00
2022-08-20T22:37:58.029Z,100.00
2022-08-20T22:40:30.499Z,100.00
2022-08-20T22:43:02.918Z,100.00
2022-08-20T22:45:36.918Z,100.00
2022-08-20T22:48:10.847Z,100.00
2022-08-20T22:50:44.303Z,100.00
2022-08-20T22:53:18.859Z,100.00
2022-08-20T22:55:51.586Z,100.00
2022-08-20T22:58:30.930Z,100.00
2022-08-20T23:01:04.993Z,100.00
2022-08-20T23:03:39.428Z,100.00
2022-08-20T23:06:13.614Z,100.00
2022-08-20T23:08:46.222Z,100.00
2022-08-20T23:11:18.651Z,100.00
2022-08-20T23:13:51.055Z,100.00
2022-08-20T23:16:25.007Z,100.00
2022-08-20T23:18:57.413Z,100.00
2022-08-20T23:21:29.826Z,100.00
2022-08-20T23:24:03.799Z,100.00
2022-08-20T23:26:39.596Z,100.00
2022-08-20T23:29:25.791Z,100.00
2022-08-20T23:31:59.959Z,100.00
2022-08-20T23:34:32.668Z,100.00
2022-08-20T23:37:06.500Z,100.00
2022-08-20T23:39:39.613Z,100.00
2022-08-20T23:42:12.262Z,100.00
2022-08-20T23:44:45.062Z,100.00
2022-08-20T23:47:20.825Z,100.00
2022-08-20T23:49:53.312Z,100.00
2022-08-20T23:52:25.856Z,100.00
2022-08-20T23:54:58.214Z,100.00
2022-08-20T23:57:30.739Z,100.00
